createdAt,value
2019-05-25T00:01:22.000Z,0
2019-05-25T00:06:34.000Z,0
2019-05-25T00:11:46.000Z,0
2019-05-25T00:16:59.000Z,0
2019-05-25T00:22:11.000Z,0
2019-05-25T00:27:23.000Z,0
2019-05-25T00:32:35.000Z,0
2019-05-25T00:37:47.000Z,0
2019-05-25T00:43:00.000Z,0
2019-05-25T00:48:12.000Z,0
2019-05-25T00:53:24.000Z,0
2019-05-25T00:58:36.000Z,0
2019-05-25T01:03:49.000Z,0
2019-05-25T01:09:01.000Z,0
2019-05-25T01:14:13.000Z,0
2019-05-25T01:19:25.000Z,0
2019-05-25T01:24:38.000Z,0
2019-05-25T01:29:50.000Z,0
2019-05-25T01:35:02.000Z,0
2019-05-25T01:40:14.000Z,0
2019-05-25T01:45:26.000Z,0
2019-05-25T01:50:39.000Z,0
2019-05-25T01:55:51.000Z,0
2019-05-25T02:01:03.000Z,0
2019-05-25T02:06:15.000Z,0
2019-05-25T02:11:28.000Z,0
2019-05-25T02:16:40.000Z,0
2019-05-25T02:21:52.000Z,0
2019-05-25T02:27:04.000Z,0
2019-05-25T02:32:16.000Z,0
2019-05-25T02:37:29.000Z,0
2019-05-25T02:42:41.000Z,0
2019-05-25T02:47:53.000Z,0
2019-05-25T02:53:05.000Z,0
2019-05-25T02:58:17.000Z,0
2019-05-25T03:03:29.000Z,0
2019-05-25T03:08:42.000Z,4
2019-05-25T03:13:54.000Z,12
2019-05-25T03:19:06.000Z,16
2019-05-25T03:24:18.000Z,24
2019-05-25T03:29:30.000Z,40
2019-05-25T03:34:43.000Z,60
2019-05-25T03:39:55.000Z,84
2019-05-25T03:45:07.000Z,112
2019-05-25T03:50:19.000Z,148
2019-05-25T03:55:31.000Z,192
2019-05-25T04:00:44.000Z,224
2019-05-25T04:05:56.000Z,260
2019-05-25T04:11:08.000Z,312
2019-05-25T04:16:20.000Z,360
2019-05-25T04:21:32.000Z,368
2019-05-25T04:26:45.000Z,364
2019-05-25T04:31:57.000Z,372
2019-05-25T04:37:09.000Z,396
2019-05-25T04:42:21.000Z,436
2019-05-25T04:47:34.000Z,500
2019-05-25T04:52:46.000Z,696
2019-05-25T04:57:58.000Z,844
2019-05-25T05:03:10.000Z,772
2019-05-25T05:08:22.000Z,776
2019-05-25T05:13:35.000Z,856
2019-05-25T05:18:47.000Z,780
2019-05-25T05:23:59.000Z,748
2019-05-25T05:29:11.000Z,744
2019-05-25T05:34:24.000Z,776
2019-05-25T05:39:36.000Z,660
2019-05-25T05:44:48.000Z,676
2019-05-25T05:50:00.000Z,1340
2019-05-25T05:55:13.000Z,1484
2019-05-25T06:00:25.000Z,1852
2019-05-25T06:05:37.000Z,1476
2019-05-25T06:10:49.000Z,1664
2019-05-25T06:16:02.000Z,1864
2019-05-25T06:21:14.000Z,1708
2019-05-25T06:26:26.000Z,1708
2019-05-25T06:31:38.000Z,1604
2019-05-25T06:36:51.000Z,2172
2019-05-25T06:42:03.000Z,1928
2019-05-25T06:47:15.000Z,1816
2019-05-25T06:52:27.000Z,2132
2019-05-25T06:57:40.000Z,2892
2019-05-25T07:02:52.000Z,3156
2019-05-25T07:08:04.000Z,3232
2019-05-25T07:13:16.000Z,2212
2019-05-25T07:18:29.000Z,1312
2019-05-25T07:23:41.000Z,2052
2019-05-25T07:28:53.000Z,2016
2019-05-25T07:34:06.000Z,2468
2019-05-25T07:39:18.000Z,2328
2019-05-25T07:44:30.000Z,2416
2019-05-25T07:49:42.000Z,2364
2019-05-25T07:54:55.000Z,2208
2019-05-25T08:00:07.000Z,2052
2019-05-25T08:05:19.000Z,2288
2019-05-25T08:10:31.000Z,3028
2019-05-25T08:15:44.000Z,3844
2019-05-25T08:20:56.000Z,4184
2019-05-25T08:26:08.000Z,3008
2019-05-25T08:31:21.000Z,2448
2019-05-25T08:36:33.000Z,2896
2019-05-25T08:41:45.000Z,2320
2019-05-25T08:46:58.000Z,2660
2019-05-25T08:52:10.000Z,2812
2019-05-25T08:57:22.000Z,2784
2019-05-25T09:02:34.000Z,2508
2019-05-25T09:07:47.000Z,2152
2019-05-25T09:12:59.000Z,2668
2019-05-25T09:18:11.000Z,3116
2019-05-25T09:23:23.000Z,2564
2019-05-25T09:28:36.000Z,3180
2019-05-25T09:33:48.474Z,1872
2019-05-25T09:39:00.000Z,1372
2019-05-25T09:44:12.000Z,2496
2019-05-25T09:49:25.000Z,2624
2019-05-25T09:54:37.000Z,2420
2019-05-25T09:59:49.000Z,1988
2019-05-25T10:05:02.000Z,1424
2019-05-25T10:10:14.000Z,1844
2019-05-25T10:15:26.000Z,1968
2019-05-25T10:20:38.000Z,1684
2019-05-25T10:25:51.000Z,1740
2019-05-25T10:31:03.000Z,1528
2019-05-25T10:36:15.000Z,1628
2019-05-25T10:41:28.000Z,2160
2019-05-25T10:46:40.000Z,2704
2019-05-25T10:51:52.000Z,2244
2019-05-25T10:57:04.000Z,2896
2019-05-25T11:02:17.000Z,3364
2019-05-25T11:07:29.000Z,3396
2019-05-25T11:12:41.000Z,3440
2019-05-25T11:17:53.000Z,2620
2019-05-25T11:23:06.000Z,3916
2019-05-25T11:28:18.000Z,3200
2019-05-25T11:33:30.000Z,3180
2019-05-25T11:38:43.000Z,3764
2019-05-25T11:43:55.000Z,3316
2019-05-25T11:49:07.000Z,3656
2019-05-25T11:54:19.000Z,3840
2019-05-25T11:59:32.000Z,2704
2019-05-25T12:04:44.000Z,3264
2019-05-25T12:09:56.000Z,4152
2019-05-25T12:15:09.000Z,4876
2019-05-25T12:20:21.000Z,4372
2019-05-25T12:25:33.000Z,4016
2019-05-25T12:30:45.000Z,4104
2019-05-25T12:35:58.000Z,3780
2019-05-25T12:41:10.000Z,4568
2019-05-25T12:46:22.000Z,5052
2019-05-25T12:51:35.000Z,4192
2019-05-25T12:56:47.000Z,4012
2019-05-25T13:01:59.000Z,3992
2019-05-25T13:07:11.000Z,3012
2019-05-25T13:12:24.000Z,2744
2019-05-25T13:17:36.000Z,2728
2019-05-25T13:22:48.000Z,4416
2019-05-25T13:28:01.000Z,3536
2019-05-25T13:33:13.000Z,4008
2019-05-25T13:38:25.000Z,4384
2019-05-25T13:43:38.000Z,4796
2019-05-25T13:48:50.000Z,4608
2019-05-25T13:54:02.000Z,3048
2019-05-25T13:59:14.000Z,3072
2019-05-25T14:04:27.000Z,3000
2019-05-25T14:09:39.000Z,3632
2019-05-25T14:14:51.000Z,3728
2019-05-25T14:20:03.000Z,4700
2019-05-25T14:25:16.000Z,3164
2019-05-25T14:30:28.000Z,2780
2019-05-25T14:35:40.000Z,3300
2019-05-25T14:40:52.000Z,3916
2019-05-25T14:46:05.000Z,4592
2019-05-25T14:51:17.000Z,3684
2019-05-25T14:56:29.000Z,8720
2019-05-25T15:01:42.000Z,35968
2019-05-25T15:06:54.000Z,32160
2019-05-25T15:12:06.000Z,32928
2019-05-25T15:17:18.000Z,36096
2019-05-25T15:22:31.000Z,5684
2019-05-25T15:27:43.000Z,38720
2019-05-25T15:32:56.000Z,38176
2019-05-25T15:38:08.000Z,36896
2019-05-25T15:43:20.000Z,32032
2019-05-25T15:48:33.000Z,35584
2019-05-25T15:53:45.000Z,31680
2019-05-25T15:58:57.000Z,30304
2019-05-25T16:04:10.000Z,29056
2019-05-25T16:09:22.000Z,28576
2019-05-25T16:14:34.000Z,24800
2019-05-25T16:19:47.000Z,25984
2019-05-25T16:24:59.000Z,21600
2019-05-25T16:30:11.000Z,21600
2019-05-25T16:35:23.000Z,21216
2019-05-25T16:40:35.000Z,18880
2019-05-25T16:45:48.000Z,19488
2019-05-25T16:51:00.000Z,11084
2019-05-25T16:56:12.000Z,5536
2019-05-25T17:01:25.000Z,4904
2019-05-25T17:06:37.000Z,3408
2019-05-25T17:11:50.000Z,2972
2019-05-25T17:17:02.000Z,2440
2019-05-25T17:22:14.000Z,2224
2019-05-25T17:27:27.000Z,1828
2019-05-25T17:32:39.000Z,1772
2019-05-25T17:37:52.000Z,1056
2019-05-25T17:43:04.000Z,928
2019-05-25T17:48:17.000Z,908
2019-05-25T17:53:29.000Z,1232
2019-05-25T17:58:42.000Z,1000
2019-05-25T18:03:54.000Z,932
2019-05-25T18:09:06.000Z,944
2019-05-25T18:14:19.000Z,812
2019-05-25T18:19:31.000Z,712
2019-05-25T18:24:44.000Z,500
2019-05-25T18:29:56.000Z,536
2019-05-25T18:35:08.000Z,484
2019-05-25T18:40:21.000Z,644
2019-05-25T18:45:33.000Z,692
2019-05-25T18:50:46.000Z,436
2019-05-25T18:55:58.000Z,312
2019-05-25T19:01:10.000Z,248
2019-05-25T19:06:23.000Z,200
2019-05-25T19:11:35.000Z,148
2019-05-25T19:16:47.000Z,108
2019-05-25T19:22:00.000Z,72
2019-05-25T19:27:12.000Z,48
2019-05-25T19:32:24.000Z,32
2019-05-25T19:37:37.000Z,24
2019-05-25T19:42:49.000Z,16
2019-05-25T19:48:01.000Z,8
2019-05-25T19:53:14.000Z,4
2019-05-25T19:58:26.000Z,4
2019-05-25T20:03:38.000Z,0
2019-05-25T20:08:51.000Z,0
2019-05-25T20:14:03.000Z,0
2019-05-25T20:19:15.000Z,0
2019-05-25T20:24:28.000Z,0
2019-05-25T20:29:40.000Z,0
2019-05-25T20:34:52.000Z,0
2019-05-25T20:40:05.000Z,0
2019-05-25T20:45:17.000Z,0
2019-05-25T20:50:29.000Z,0
2019-05-25T20:55:41.000Z,0
2019-05-25T21:00:54.000Z,0
2019-05-25T21:06:06.000Z,0
2019-05-25T21:11:18.000Z,0
2019-05-25T21:16:30.000Z,0
2019-05-25T21:21:43.000Z,0
2019-05-25T21:26:55.000Z,0
2019-05-25T21:32:07.000Z,0
2019-05-25T21:37:19.000Z,0
2019-05-25T21:42:32.000Z,0
2019-05-25T21:47:44.000Z,0
2019-05-25T21:52:56.000Z,0
2019-05-25T21:58:09.000Z,0
2019-05-25T22:03:21.000Z,0
2019-05-25T22:08:33.000Z,0
2019-05-25T22:13:45.000Z,0
2019-05-25T22:18:58.000Z,0
2019-05-25T22:24:10.000Z,0
2019-05-25T22:29:22.000Z,0
2019-05-25T22:34:34.000Z,0
2019-05-25T22:39:47.000Z,0
2019-05-25T22:44:59.000Z,0
2019-05-25T22:50:11.000Z,0
2019-05-25T22:55:23.000Z,0
2019-05-25T23:00:35.000Z,0
2019-05-25T23:05:48.000Z,0
2019-05-25T23:11:00.000Z,0
2019-05-25T23:16:12.000Z,0
2019-05-25T23:21:24.000Z,0
2019-05-25T23:26:37.000Z,0
2019-05-25T23:31:49.000Z,0
2019-05-25T23:37:01.000Z,0
2019-05-25T23:42:13.000Z,0
2019-05-25T23:47:25.000Z,0
2019-05-25T23:52:38.000Z,0
2019-05-25T23:57:50.000Z,0
